createdAt,value
2022-11-29T00:01:29.511Z,93937.31
2022-11-29T00:04:32.476Z,93945.22
2022-11-29T00:07:35.955Z,93943.47
2022-11-29T00:10:39.455Z,93943.97
2022-11-29T00:13:42.399Z,93952.03
2022-11-29T00:16:46.123Z,93943.53
2022-11-29T00:19:49.823Z,93949.78
2022-11-29T00:22:52.861Z,93942.84
2022-11-29T00:25:55.941Z,93941.38
2022-11-29T00:28:58.870Z,93940.31
2022-11-29T00:32:01.853Z,93939.03
2022-11-29T00:35:09.690Z,93941.00
2022-11-29T00:38:13.032Z,93931.09
2022-11-29T00:41:16.351Z,93924.94
2022-11-29T00:44:20.690Z,93929.19
2022-11-29T00:47:24.544Z,93923.59
2022-11-29T00:50:27.877Z,93929.94
2022-11-29T00:53:31.061Z,93933.97
2022-11-29T00:56:34.490Z,93932.75
2022-11-29T00:59:37.630Z,93933.91
2022-11-29T01:02:41.155Z,93935.94
2022-11-29T01:05:45.020Z,93937.19
2022-11-29T01:08:48.897Z,93942.53
2022-11-29T01:11:52.641Z,93941.22
2022-11-29T01:14:56.947Z,93951.50
2022-11-29T01:18:00.760Z,93935.28
2022-11-29T01:21:16.098Z,93929.38
2022-11-29T01:24:19.050Z,93926.66
2022-11-29T01:27:23.137Z,93924.34
2022-11-29T01:30:26.982Z,93922.06
2022-11-29T01:33:31.191Z,93924.97
2022-11-29T01:36:35.284Z,93917.78
2022-11-29T01:39:38.873Z,93914.31
2022-11-29T01:42:41.827Z,93919.97
2022-11-29T01:45:45.679Z,93915.50
2022-11-29T01:48:49.689Z,93921.63
2022-11-29T01:52:14.620Z,93909.94
2022-11-29T01:55:19.109Z,93912.75
2022-11-29T01:58:23.876Z,93920.38
2022-11-29T02:01:27.233Z,93919.41
2022-11-29T02:04:36.997Z,93917.31
2022-11-29T02:07:42.367Z,93914.56
2022-11-29T02:11:04.972Z,93914.56
2022-11-29T02:14:24.984Z,93904.97
2022-11-29T02:18:09.422Z,93909.50
2022-11-29T02:21:24.048Z,93906.88
2022-11-29T02:24:40.440Z,93903.66
2022-11-29T02:28:28.681Z,93897.25
2022-11-29T02:31:51.962Z,93895.06
2022-11-29T02:35:20.533Z,93899.28
2022-11-29T02:38:48.084Z,93894.13
2022-11-29T02:42:12.168Z,93893.94
2022-11-29T02:45:41.667Z,93893.44
2022-11-29T02:48:54.121Z,93889.19
2022-11-29T02:52:00.606Z,93887.38
2022-11-29T02:55:27.300Z,93878.34
2022-11-29T02:58:42.097Z,93887.63
2022-11-29T03:02:04.603Z,93886.06
2022-11-29T03:05:33.407Z,93871.69
2022-11-29T03:09:09.020Z,93868.09
2022-11-29T03:12:18.573Z,93862.19
2022-11-29T03:15:22.772Z,93859.75
2022-11-29T03:18:56.382Z,93850.97
2022-11-29T03:22:13.293Z,93846.75
2022-11-29T03:25:30.391Z,93839.69
2022-11-29T03:28:54.477Z,93836.56
2022-11-29T03:32:02.329Z,93837.56
2022-11-29T03:35:09.044Z,93832.28
2022-11-29T03:38:44.727Z,93833.66
2022-11-29T03:41:59.576Z,93837.38
2022-11-29T03:45:12.228Z,93835.88
2022-11-29T03:48:21.755Z,93826.44
2022-11-29T03:51:29.971Z,93822.88
2022-11-29T03:55:02.591Z,93821.50
2022-11-29T03:58:33.794Z,93821.63
2022-11-29T04:02:24.565Z,93805.97
2022-11-29T04:05:39.789Z,93799.94
2022-11-29T04:09:00.657Z,93793.50
2022-11-29T04:12:18.877Z,93792.09
2022-11-29T04:15:47.174Z,93793.75
2022-11-29T04:19:26.631Z,93791.50
2022-11-29T04:22:49.265Z,93787.22
2022-11-29T04:26:24.254Z,93777.81
2022-11-29T04:29:37.047Z,93772.25
2022-11-29T04:33:17.952Z,93762.97
2022-11-29T04:37:04.327Z,93762.94
2022-11-29T04:40:22.760Z,93755.03
2022-11-29T04:43:47.837Z,93743.84
2022-11-29T04:47:04.918Z,93748.00
2022-11-29T04:50:14.109Z,93752.66
2022-11-29T04:53:26.855Z,93753.06
2022-11-29T04:56:34.088Z,93748.13
2022-11-29T04:59:58.293Z,93747.84
2022-11-29T05:03:31.880Z,93733.38
2022-11-29T05:06:50.514Z,93721.06
2022-11-29T05:09:57.129Z,93732.16
2022-11-29T05:13:13.061Z,93722.91
2022-11-29T05:16:25.178Z,93727.03
2022-11-29T05:19:30.749Z,93721.09
2022-11-29T05:22:59.207Z,93712.84
2022-11-29T05:26:36.623Z,93710.25
2022-11-29T05:29:47.042Z,93712.03
2022-11-29T05:33:17.896Z,93715.03
2022-11-29T05:36:29.660Z,93703.69
2022-11-29T05:39:44.074Z,93711.41
2022-11-29T05:43:05.672Z,93703.88
2022-11-29T05:46:40.868Z,93705.84
2022-11-29T05:50:05.342Z,93700.47
2022-11-29T05:53:27.184Z,93697.03
2022-11-29T05:57:00.351Z,93705.91
2022-11-29T06:00:06.787Z,93701.19
2022-11-29T06:03:22.141Z,93705.50
2022-11-29T06:06:41.360Z,93700.69
2022-11-29T06:09:51.848Z,93703.06
2022-11-29T06:13:07.643Z,93696.50
2022-11-29T06:16:48.901Z,93692.56
2022-11-29T06:20:17.443Z,93703.94
2022-11-29T06:23:37.492Z,93686.47
2022-11-29T06:26:50.280Z,93700.69
2022-11-29T06:30:02.876Z,93707.03
2022-11-29T06:33:42.172Z,93697.34
2022-11-29T06:37:01.918Z,93705.72
2022-11-29T06:40:06.375Z,93694.53
2022-11-29T06:43:10.721Z,93696.03
2022-11-29T06:46:46.291Z,93689.63
2022-11-29T06:50:02.298Z,93688.97
2022-11-29T06:53:23.153Z,93694.78
2022-11-29T06:56:30.704Z,93699.97
2022-11-29T06:59:56.586Z,93715.16
2022-11-29T07:03:25.166Z,93710.03
2022-11-29T07:06:30.347Z,93712.16
2022-11-29T07:09:35.753Z,93710.91
2022-11-29T07:12:39.318Z,93710.81
2022-11-29T07:16:07.019Z,93710.13
2022-11-29T07:19:39.698Z,93710.34
2022-11-29T07:22:58.083Z,93710.34
2022-11-29T07:26:30.199Z,93712.09
2022-11-29T07:29:45.475Z,93709.03
2022-11-29T07:33:27.080Z,93707.78
2022-11-29T07:36:35.644Z,93709.72
2022-11-29T07:39:44.180Z,93712.78
2022-11-29T07:43:15.082Z,93708.72
2022-11-29T07:46:18.211Z,93709.59
2022-11-29T07:49:21.957Z,93708.56
2022-11-29T07:52:25.141Z,93711.81
2022-11-29T07:55:30.256Z,93717.72
2022-11-29T07:58:34.000Z,93721.94
2022-11-29T08:01:37.480Z,93721.84
2022-11-29T08:04:47.238Z,93718.13
2022-11-29T08:07:51.313Z,93721.38
2022-11-29T08:10:54.615Z,93723.06
2022-11-29T08:14:02.581Z,93722.06
2022-11-29T08:17:05.975Z,93714.16
2022-11-29T08:20:11.203Z,93714.75
2022-11-29T08:23:16.000Z,93728.97
2022-11-29T08:26:23.496Z,93730.72
2022-11-29T08:29:28.570Z,93737.41
2022-11-29T08:32:31.623Z,93736.50
2022-11-29T08:35:36.764Z,93732.66
2022-11-29T08:38:39.953Z,93742.00
2022-11-29T08:41:43.468Z,93734.53
2022-11-29T08:44:48.250Z,93730.97
2022-11-29T08:47:52.026Z,93729.41
2022-11-29T08:50:56.928Z,93722.34
2022-11-29T08:54:02.357Z,93731.28
2022-11-29T08:57:38.059Z,93730.66
2022-11-29T09:00:28.402Z,93738.81
2022-11-29T09:03:52.156Z,93741.72
2022-11-29T09:06:55.799Z,93740.06
2022-11-29T09:09:59.724Z,93742.88
2022-11-29T09:13:03.048Z,93747.78
2022-11-29T09:16:14.136Z,93750.00
2022-11-29T09:19:18.188Z,93749.88
2022-11-29T09:22:22.051Z,93741.56
2022-11-29T09:25:25.081Z,93741.88
2022-11-29T09:28:28.514Z,93749.16
2022-11-29T09:31:32.949Z,93752.97
2022-11-29T09:34:36.190Z,93749.16
2022-11-29T09:37:44.597Z,93747.31
2022-11-29T09:40:56.133Z,93746.41
2022-11-29T09:44:11.566Z,93739.09
2022-11-29T09:47:52.992Z,93737.06
2022-11-29T09:51:18.488Z,93730.53
2022-11-29T09:54:21.699Z,93743.84
2022-11-29T09:57:28.245Z,93738.63
2022-11-29T10:00:36.175Z,93734.00
2022-11-29T10:03:47.377Z,93740.38
2022-11-29T10:07:04.373Z,93728.56
2022-11-29T10:10:19.790Z,93729.41
2022-11-29T10:13:35.607Z,93720.50
2022-11-29T10:16:55.972Z,93722.78
2022-11-29T10:20:16.038Z,93723.44
2022-11-29T10:23:24.904Z,93721.72
2022-11-29T10:26:34.809Z,93723.44
2022-11-29T10:29:39.783Z,93722.25
2022-11-29T10:32:47.172Z,93728.38
2022-11-29T10:35:53.636Z,93718.38
2022-11-29T10:39:02.319Z,93712.81
2022-11-29T10:42:31.097Z,93722.84
2022-11-29T10:45:40.970Z,93717.72
2022-11-29T10:48:45.234Z,93718.16
2022-11-29T10:51:48.976Z,93714.16
2022-11-29T10:54:57.347Z,93712.50
2022-11-29T10:58:13.018Z,93706.31
2022-11-29T11:01:17.724Z,93707.97
2022-11-29T11:04:35.321Z,93707.97
2022-11-29T11:07:40.094Z,93706.31
2022-11-29T11:10:55.430Z,93710.22
2022-11-29T11:14:03.922Z,93705.88
2022-11-29T11:17:22.888Z,93716.16
2022-11-29T11:20:30.605Z,93711.81
2022-11-29T11:23:42.932Z,93719.72
2022-11-29T11:26:47.353Z,93717.88
2022-11-29T11:29:53.620Z,93724.25
2022-11-29T11:33:16.114Z,93732.56
2022-11-29T11:36:23.445Z,93726.81
2022-11-29T11:39:33.500Z,93724.09
2022-11-29T11:42:41.626Z,93717.22
2022-11-29T11:45:53.422Z,93726.09
2022-11-29T11:48:57.251Z,93723.81
2022-11-29T11:52:04.784Z,93705.47
2022-11-29T11:55:23.826Z,93712.13
2022-11-29T11:58:54.364Z,93718.53
2022-11-29T12:01:58.013Z,93714.22
2022-11-29T12:05:03.785Z,93708.88
2022-11-29T12:08:11.989Z,93715.44
2022-11-29T12:11:18.619Z,93723.09
2022-11-29T12:14:35.866Z,93727.06
2022-11-29T12:17:47.651Z,93729.88
2022-11-29T12:21:10.791Z,93721.94
2022-11-29T12:24:27.888Z,93719.94
2022-11-29T12:27:32.468Z,93727.22
2022-11-29T12:30:37.878Z,93722.56
2022-11-29T12:34:05.656Z,93719.47
2022-11-29T12:37:22.933Z,93717.41
2022-11-29T12:40:59.824Z,93719.88
2022-11-29T12:44:08.360Z,93721.84
2022-11-29T12:47:36.479Z,93724.28
2022-11-29T12:50:55.377Z,93724.63
2022-11-29T12:54:08.116Z,93721.22
2022-11-29T12:57:33.654Z,93719.91
2022-11-29T13:00:56.079Z,93715.03
2022-11-29T13:04:36.891Z,93726.84
2022-11-29T13:08:01.967Z,93712.69
2022-11-29T13:11:29.095Z,93704.75
2022-11-29T13:14:43.909Z,93720.28
2022-11-29T13:17:59.236Z,93714.41
2022-11-29T13:21:30.289Z,93721.81
2022-11-29T13:25:00.256Z,93714.94
2022-11-29T13:28:27.524Z,93718.50
2022-11-29T13:31:32.017Z,93708.44
2022-11-29T13:34:46.131Z,93708.09
2022-11-29T13:38:09.108Z,93718.19
2022-11-29T13:41:31.608Z,93724.75
2022-11-29T13:44:49.308Z,93720.34
2022-11-29T13:47:55.500Z,93726.41
2022-11-29T13:50:58.983Z,93721.59
2022-11-29T13:54:32.943Z,93727.00
2022-11-29T13:58:18.621Z,93729.44
2022-11-29T14:01:25.521Z,93718.69
2022-11-29T14:04:31.175Z,93731.47
2022-11-29T14:07:36.853Z,93737.56
2022-11-29T14:10:39.975Z,93729.72
2022-11-29T14:14:04.208Z,93726.47
2022-11-29T14:17:28.189Z,93724.09
2022-11-29T14:20:45.874Z,93732.00
2022-11-29T14:23:49.246Z,93718.09
2022-11-29T14:26:53.290Z,93733.97
2022-11-29T14:29:56.892Z,93734.91
2022-11-29T14:33:09.672Z,93736.97
2022-11-29T14:36:15.762Z,93738.44
2022-11-29T14:39:42.431Z,93741.00
2022-11-29T14:42:49.177Z,93742.00
2022-11-29T14:46:29.293Z,93743.19
2022-11-29T14:49:40.509Z,93746.16
2022-11-29T14:52:53.790Z,93748.56
2022-11-29T14:56:32.726Z,93741.06
2022-11-29T14:59:51.856Z,93735.16
2022-11-29T15:03:18.519Z,93732.41
2022-11-29T15:06:27.732Z,93734.06
2022-11-29T15:09:34.448Z,93731.50
2022-11-29T15:12:38.303Z,93724.06
2022-11-29T15:16:29.642Z,93718.81
2022-11-29T15:19:51.721Z,93727.25
2022-11-29T15:23:01.591Z,93735.88
2022-11-29T15:26:06.008Z,93735.09
2022-11-29T15:29:19.511Z,93737.72
2022-11-29T15:32:33.036Z,93740.47
2022-11-29T15:35:37.772Z,93736.84
2022-11-29T15:38:52.262Z,93739.53
2022-11-29T15:42:04.796Z,93741.56
2022-11-29T15:45:27.681Z,93739.22
2022-11-29T15:48:33.051Z,93740.19
2022-11-29T15:51:39.180Z,93745.38
2022-11-29T15:54:52.174Z,93738.84
2022-11-29T15:57:58.130Z,93736.19
2022-11-29T16:01:03.526Z,93736.78
2022-11-29T16:04:12.985Z,93735.88
2022-11-29T16:07:17.004Z,93738.31
2022-11-29T16:10:35.350Z,93733.66
2022-11-29T16:13:40.705Z,93735.03
2022-11-29T16:16:47.395Z,93737.59
2022-11-29T16:19:51.278Z,93727.84
2022-11-29T16:23:33.497Z,93718.66
2022-11-29T16:26:40.954Z,93730.63
2022-11-29T16:29:46.367Z,93736.84
2022-11-29T16:32:58.448Z,93724.66
2022-11-29T16:36:06.021Z,93722.38
2022-11-29T16:39:20.828Z,93724.38
2022-11-29T16:42:27.817Z,93721.25
2022-11-29T16:45:35.961Z,93732.59
2022-11-29T16:48:40.240Z,93727.25
2022-11-29T16:51:48.680Z,93733.75
2022-11-29T16:54:53.089Z,93739.44
2022-11-29T16:57:56.925Z,93737.47
2022-11-29T17:01:00.725Z,93745.13
2022-11-29T17:04:03.891Z,93748.72
2022-11-29T17:07:09.912Z,93747.22
2022-11-29T17:10:19.044Z,93749.22
2022-11-29T17:13:22.301Z,93743.28
2022-11-29T17:16:26.182Z,93748.38
2022-11-29T17:19:30.765Z,93742.56
2022-11-29T17:22:33.783Z,93748.53
2022-11-29T17:25:37.255Z,93750.94
2022-11-29T17:28:44.947Z,93746.13
2022-11-29T17:31:51.112Z,93757.81
2022-11-29T17:34:55.004Z,93751.06
2022-11-29T17:37:59.814Z,93754.06
2022-11-29T17:41:14.333Z,93755.22
2022-11-29T17:44:17.659Z,93754.63
2022-11-29T17:47:20.656Z,93747.13
2022-11-29T17:50:24.025Z,93751.97
2022-11-29T17:53:27.578Z,93753.81
2022-11-29T17:56:31.308Z,93756.91
2022-11-29T17:59:35.077Z,93757.63
2022-11-29T18:02:38.863Z,93759.03
2022-11-29T18:05:42.462Z,93761.84
2022-11-29T18:08:48.361Z,93770.38
2022-11-29T18:11:51.438Z,93767.13
2022-11-29T18:14:54.374Z,93777.03
2022-11-29T18:17:58.051Z,93775.47
2022-11-29T18:21:03.183Z,93767.88
2022-11-29T18:24:07.805Z,93773.78
2022-11-29T18:27:11.957Z,93774.63
2022-11-29T18:30:15.714Z,93778.31
2022-11-29T18:33:19.481Z,93776.34
2022-11-29T18:36:28.511Z,93775.88
2022-11-29T18:39:31.797Z,93785.09
2022-11-29T18:42:34.631Z,93778.16
2022-11-29T18:45:40.514Z,93780.03
2022-11-29T18:48:47.170Z,93778.88
2022-11-29T18:51:51.135Z,93797.63
2022-11-29T18:54:54.821Z,93789.72
2022-11-29T18:57:58.467Z,93797.38
2022-11-29T19:01:08.438Z,93786.34
2022-11-29T19:04:14.474Z,93802.03
2022-11-29T19:07:17.523Z,93796.53
2022-11-29T19:10:20.838Z,93800.47
2022-11-29T19:13:23.811Z,93801.72
2022-11-29T19:16:30.263Z,93798.75
2022-11-29T19:19:33.357Z,93788.03
2022-11-29T19:22:36.619Z,93793.38
2022-11-29T19:25:39.665Z,93800.59
2022-11-29T19:28:45.822Z,93807.88
2022-11-29T19:31:50.895Z,93814.34
2022-11-29T19:34:55.047Z,93813.25
2022-11-29T19:37:58.129Z,93806.31
2022-11-29T19:41:07.984Z,93802.53
2022-11-29T19:44:12.075Z,93802.09
2022-11-29T19:47:15.024Z,93824.25
2022-11-29T19:50:18.000Z,93828.66
2022-11-29T19:53:21.097Z,93831.31
2022-11-29T19:56:25.381Z,93817.19
2022-11-29T19:59:28.628Z,93818.78
2022-11-29T20:02:31.629Z,93813.56
2022-11-29T20:05:35.843Z,93813.38
2022-11-29T20:08:39.127Z,93808.97
2022-11-29T20:11:42.555Z,93808.94
2022-11-29T20:14:46.370Z,93816.94
2022-11-29T20:17:49.695Z,93814.56
2022-11-29T20:20:53.796Z,93819.28
2022-11-29T20:24:05.769Z,93824.66
2022-11-29T20:27:08.746Z,93820.84
2022-11-29T20:30:12.748Z,93812.03
2022-11-29T20:33:20.750Z,93818.66
2022-11-29T20:36:47.926Z,93821.31
2022-11-29T20:39:53.194Z,93817.66
2022-11-29T20:43:24.940Z,93820.56
2022-11-29T20:46:29.301Z,93812.81
2022-11-29T20:49:33.316Z,93813.97
2022-11-29T20:52:49.740Z,93829.09
2022-11-29T20:55:53.689Z,93826.94
2022-11-29T20:58:57.543Z,93826.91
2022-11-29T21:02:02.212Z,93827.19
2022-11-29T21:05:07.141Z,93823.75
2022-11-29T21:08:11.134Z,93821.22
2022-11-29T21:11:15.302Z,93833.25
2022-11-29T21:14:20.402Z,93822.38
2022-11-29T21:17:30.115Z,93834.56
2022-11-29T21:20:37.223Z,93828.78
2022-11-29T21:23:49.579Z,93822.16
2022-11-29T21:26:54.335Z,93817.59
2022-11-29T21:29:58.165Z,93812.81
2022-11-29T21:33:02.094Z,93818.44
2022-11-29T21:36:06.750Z,93815.47
2022-11-29T21:39:15.782Z,93817.16
2022-11-29T21:42:19.513Z,93816.03
2022-11-29T21:45:23.168Z,93815.19
2022-11-29T21:48:35.869Z,93806.56
2022-11-29T21:51:39.996Z,93831.31
2022-11-29T21:54:43.891Z,93826.53
2022-11-29T21:57:48.661Z,93825.22
2022-11-29T22:00:52.996Z,93823.94
2022-11-29T22:03:57.440Z,93826.91
2022-11-29T22:07:01.611Z,93826.28
2022-11-29T22:10:12.953Z,93835.81
2022-11-29T22:13:17.189Z,93824.78
2022-11-29T22:16:21.416Z,93827.84
2022-11-29T22:19:27.645Z,93829.00
2022-11-29T22:22:31.665Z,93843.28
2022-11-29T22:25:35.404Z,93840.03
2022-11-29T22:28:39.736Z,93837.63
2022-11-29T22:31:46.324Z,93836.50
2022-11-29T22:34:50.629Z,93833.63
2022-11-29T22:37:54.593Z,93819.03
2022-11-29T22:41:10.794Z,93831.28
2022-11-29T22:44:14.489Z,93837.66
2022-11-29T22:47:18.642Z,93834.09
2022-11-29T22:50:22.075Z,93842.03
2022-11-29T22:53:25.908Z,93843.00
2022-11-29T22:56:31.561Z,93864.38
2022-11-29T22:59:34.812Z,93858.81
2022-11-29T23:02:38.537Z,93858.31
2022-11-29T23:05:42.591Z,93857.63
2022-11-29T23:08:47.411Z,93861.41
2022-11-29T23:11:54.317Z,93862.69
2022-11-29T23:14:58.558Z,93861.28
2022-11-29T23:18:02.099Z,93860.75
2022-11-29T23:21:08.459Z,93871.31
2022-11-29T23:24:12.745Z,93864.25
2022-11-29T23:27:16.492Z,93868.00
2022-11-29T23:30:20.671Z,93871.31
2022-11-29T23:33:24.436Z,93868.19
2022-11-29T23:36:28.457Z,93877.16
2022-11-29T23:39:32.089Z,93886.09
2022-11-29T23:42:36.086Z,93885.44
2022-11-29T23:45:40.398Z,93877.72
2022-11-29T23:48:44.761Z,93875.41
2022-11-29T23:51:48.430Z,93883.13
2022-11-29T23:54:52.422Z,93891.88
2022-11-29T23:57:56.222Z,93896.56
